Station FPTM4 - Fairport, MI Image indicating link to RSS feed of recent meteorological observations for station FPTM4


Conditions at FPTM4 as of
(6:40 am EDT)
1040 GMT on 04/21/2024:
     

Click on the graph icon in the table below to see a time series plot of the last five days of that observation.

5-day plot - Wind Direction Wind Direction (WDIR):WNW ( 300 deg true )
5-day plot - Wind Speed Wind Speed (WSPD): 13.0 kts
5-day plot - Wind Gust Wind Gust (GST): 14.0 kts
5-day plot - Air Temperature Air Temperature (ATMP): 37.6 °F
5-day plot - Wind Chill Wind Chill (CHILL): 28.8 °F
5-day plot - Wind Speed at 10 Meters Wind Speed at 10 meters (WSPD10M): 13.6 kts
5-day plot - Wind Speed at 20 Meters Wind Speed at 20 meters (WSPD20M): 13.6 kts
5-day plot -  Wind Speed, Wind Gust and Atmospheric Pressure Combined plot of Wind Speed, Gust, and Air Pressure
Previous observations
TIME
(EDT)
5-day plot - Wind Direction
WDIR
 
5-day plot - Wind Speed
WSPD
kts
5-day plot - Wind Gust
GST
kts
5-day plot - Wave Height
WVHT
ft
5-day plot - Dominant Wave Period
DPD
sec
5-day plot - Average Wave Period
APD
sec
5-day plot - Mean Wave Direction
MWD
 
5-day plot - Atmospheric Pressure
PRES
in
5-day plot - Pressure Tendency
PTDY
in
5-day plot - Air Temperature
ATMP
°F
5-day plot - Water Temperature
WTMP
°F
5-day plot - Dew Point
DEWP
°F
5-day plot - Salinity
SAL
psu
5-day plot - Visibility
VIS
nmi
5-day plot - Tide (above MLLW)
TIDE
ft
2024-04-21 06:30 amWNW 13.0 15.9------ 37.6-----
2024-04-21 06:20 amWNW 14.0 15.9------ 37.8-----
2024-04-21 06:10 amWNW 14.0 17.1------ 37.8-----
2024-04-21 06:00 amWNW 15.0 17.1------ 37.8-----
2024-04-21 05:50 amWNW 15.9 18.1------ 37.8-----
2024-04-21 05:40 amWNW 15.0 17.1------ 37.8-----
2024-04-21 05:30 amWNW 15.0 18.1------ 37.8-----
2024-04-21 05:20 amWNW 15.0 17.1------ 37.8-----
2024-04-21 05:10 amWNW 15.0 17.1------ 37.8-----
2024-04-21 05:00 amWNW 14.0 15.9------ 37.8-----
2024-04-21 04:50 amWNW 14.0 17.1------ 37.6-----
2024-04-21 04:40 amWNW 14.0 17.1------ 37.6-----
2024-04-21 04:30 amWNW 13.0 18.1------ 37.6-----
2024-04-21 04:20 amWNW 15.9 18.1------ 37.6-----
2024-04-21 04:10 amWNW 15.0 21.0------ 37.6-----
2024-04-21 04:00 amWNW 15.9 21.0------ 37.8-----
2024-04-21 03:50 amWNW 18.1 20.0------ 37.8-----
2024-04-21 03:40 am W 18.1 21.0------ 37.9-----
2024-04-21 03:30 am W 19.0 21.0------ 37.9-----
2024-04-21 03:20 am W 18.1 21.0------ 38.1-----
2024-04-21 03:10 am W 17.1 21.0------ 38.1-----
2024-04-21 03:00 am W 18.1 21.0------ 38.1-----
2024-04-21 02:50 am W 15.9 20.0------ 38.3-----
2024-04-21 02:40 am W 17.1 20.0------ 38.3-----
2024-04-21 02:30 am W 14.0 17.1------ 38.3-----
2024-04-21 02:20 am W 15.0 19.0------ 38.5-----
2024-04-21 02:10 am W 15.0 19.0------ 38.5-----
2024-04-21 02:00 am W 15.9 20.0------ 38.5-----
2024-04-21 01:50 am W 14.0 17.1------ 38.7-----
2024-04-21 01:40 am W 13.0 17.1------ 38.7-----
2024-04-21 01:30 am W 15.0 19.0------ 38.8-----
2024-04-21 01:20 am W 12.0 15.9------ 38.8-----
2024-04-21 01:10 amWSW 15.0 17.1------ 38.7-----
2024-04-21 01:00 am W 11.1 15.0------ 38.5-----
2024-04-21 12:50 am W 12.0 15.0------ 38.7-----
2024-04-21 12:40 am W 12.0 15.0------ 38.7-----
2024-04-21 12:30 am W 12.0 15.0------ 38.8-----
2024-04-21 12:20 amWSW 11.1 13.0------ 38.8-----
2024-04-21 12:10 amWSW 9.9 12.0------ 39.0-----
2024-04-21 12:00 am W 9.9 12.0------ 39.0-----
2024-04-20 11:50 pmWSW 9.9 13.0------ 39.0-----
2024-04-20 11:40 pm W 8.9 11.1------ 39.2-----
2024-04-20 11:30 pm W 9.9 11.1------ 39.4-----
2024-04-20 11:20 pm W 9.9 13.0------ 39.9-----
2024-04-20 11:10 pm W 12.0 14.0------ 40.1-----
2024-04-20 11:00 pm W 12.0 14.0------ 40.1-----
2024-04-20 10:50 pm W 9.9 13.0------ 39.7-----
2024-04-20 10:40 pm W 9.9 12.0------ 39.9-----
2024-04-20 10:30 pm W 11.1 13.0------ 40.3-----
2024-04-20 10:20 pm W 11.1 13.0------ 40.5-----
2024-04-20 10:10 pm W 12.0 14.0------ 40.5-----
2024-04-20 10:00 pm W 11.1 15.0------ 40.6-----
2024-04-20 09:50 pmWNW 11.1 13.0------ 40.6-----
2024-04-20 09:40 pmWNW 11.1 12.0------ 40.6-----
2024-04-20 09:30 pm W 9.9 11.1------ 40.1-----
2024-04-20 09:20 pm W 8.0 9.9------ 39.9-----
2024-04-20 09:10 pm W 6.0 8.0------ 39.9-----
2024-04-20 09:00 pm W 6.0 7.0------ 39.9-----
2024-04-20 08:50 pm W 7.0 9.9------ 40.1-----
2024-04-20 08:40 pm W 8.0 11.1------ 40.3-----
2024-04-20 08:30 pm W 8.9 11.1------ 40.3-----
2024-04-20 08:20 pm W 11.1 12.0------ 40.3-----
2024-04-20 08:10 pm W 12.0 14.0------ 40.3-----
2024-04-20 08:00 pmWNW 12.0 15.0------ 40.5-----
2024-04-20 07:50 pmWNW 14.0 15.0------ 40.3-----
2024-04-20 07:40 pmWNW 14.0 15.9------ 40.3-----
2024-04-20 07:30 pmWNW 15.0 15.9------ 40.5-----
2024-04-20 07:20 pmWNW 13.0 15.9------ 40.5-----
2024-04-20 07:10 pmWNW 13.0 14.0------ 40.6-----
2024-04-20 07:00 pmWNW 12.0 15.0------ 40.3-----
2024-04-20 06:50 pm W 9.9 12.0------ 40.1-----
2024-04-20 06:40 pm SW 6.0 9.9------ 39.7-----
2024-04-20 06:30 pm SW 8.9 11.1------ 39.7-----
2024-04-20 06:20 pm SW 9.9 11.1------ 39.9-----
2024-04-20 06:10 pmWSW 8.9 11.1------ 40.1-----
2024-04-20 06:00 pmWSW 8.9 11.1------ 39.9-----
2024-04-20 05:50 pm W 8.0 11.1------ 40.1-----
2024-04-20 05:40 pm W 8.0 9.9------ 39.9-----
2024-04-20 05:30 pm W 8.9 12.0------ 39.7-----
2024-04-20 05:20 pm W 11.1 13.0------ 39.6-----
2024-04-20 05:10 pmWNW 11.1 14.0------ 39.4-----
2024-04-20 05:00 pm W 12.0 14.0------ 39.4-----
2024-04-20 04:50 pmWNW 9.9 14.0------ 39.2-----
2024-04-20 04:40 pmWNW 13.0 19.0------ 39.0-----
2024-04-20 04:30 pmWNW 11.1 13.0------ 39.0-----
2024-04-20 04:20 pmWNW 12.0 14.0------ 38.8-----
2024-04-20 04:10 pmWNW 13.0 18.1------ 38.8-----
2024-04-20 04:00 pmWNW 14.0 19.0------ 38.8-----
2024-04-20 03:50 pmWNW 15.0 19.0------ 38.5-----
2024-04-20 03:40 pmWNW 15.9 19.0------ 38.7-----
2024-04-20 03:30 pm W 17.1 18.1------ 38.7-----
2024-04-20 03:20 pm W 17.1 20.0------ 38.7-----
2024-04-20 03:10 pm W 17.1 21.0------ 38.5-----
2024-04-20 03:00 pm W 18.1 20.0------ 38.8-----
2024-04-20 02:50 pm W 17.1 19.0------ 38.7-----
2024-04-20 02:40 pm W 17.1 20.0------ 38.7-----
2024-04-20 02:30 pm W 18.1 21.0------ 38.7-----
2024-04-20 02:20 pm W 17.1 21.0------ 38.5-----
2024-04-20 02:10 pm W 19.0 22.0------ 38.5-----
2024-04-20 02:00 pm W 18.1 22.0------ 38.5-----
2024-04-20 01:50 pm W 18.1 21.0------ 38.7-----
2024-04-20 01:40 pm W 20.0 22.9------ 38.3-----
2024-04-20 01:30 pm W 20.0 22.9------ 38.5-----
2024-04-20 01:20 pm W 21.0 25.1------ 38.7-----
2024-04-20 01:10 pm W 18.1 20.0------ 39.2-----
2024-04-20 01:00 pm W 19.0 22.9------ 39.2-----
2024-04-20 12:50 pm W 19.0 22.0------ 39.2-----
2024-04-20 12:40 pm W 19.0 21.0------ 38.7-----
2024-04-20 12:30 pmWNW 20.0 24.1------ 38.5-----
2024-04-20 12:20 pm W 20.0 25.1------ 38.8-----
2024-04-20 12:10 pm W 17.1 22.0------ 38.8-----
2024-04-20 12:00 pm W 18.1 21.0------ 38.8-----
2024-04-20 11:50 amWNW 20.0 22.0------ 37.9-----
2024-04-20 11:40 amWNW 18.1 22.9------ 38.1-----
2024-04-20 11:30 am W 19.0 22.0------ 38.5-----
2024-04-20 11:20 amWNW 19.0 22.0------ 38.5-----
2024-04-20 11:10 amWNW 15.9 22.0------ 37.9-----
2024-04-20 11:00 amWNW 18.1 21.0------ 37.8-----
2024-04-20 10:50 amWNW 18.1 21.0------ 37.4-----
2024-04-20 10:40 amWNW 15.9 20.0------ 37.2-----
2024-04-20 10:30 am W 17.1 19.0------ 37.0-----
2024-04-20 10:20 am W 15.9 19.0------ 36.7-----
2024-04-20 10:10 amWNW 15.9 22.9------ 36.7-----
2024-04-20 10:00 amWNW 17.1 24.1------ 36.5-----
2024-04-20 09:50 amWNW 19.0 22.0------ 36.5-----
2024-04-20 09:40 amWNW 17.1 21.0------ 36.3-----
2024-04-20 09:30 am W 18.1 21.0------ 36.3-----
2024-04-20 09:20 amWNW 19.0 22.0------ 36.3-----
2024-04-20 09:10 amWNW 18.1 21.0------ 36.1-----
2024-04-20 09:00 amWNW 18.1 22.0------ 36.1-----
2024-04-20 08:50 am W 20.0 22.9------ 36.1-----
2024-04-20 08:40 amWNW 19.0 22.0------ 36.1-----
2024-04-20 08:30 amWNW 19.0 22.9------ 36.1-----
2024-04-20 08:20 amWNW 19.0 22.9------ 36.3-----
2024-04-20 08:10 amWNW 20.0 24.1------ 36.0-----
2024-04-20 08:00 amWNW 20.0 25.1------ 36.1-----
2024-04-20 07:50 amWNW 20.0 24.1------ 36.1-----
2024-04-20 07:40 amWNW 19.0 24.1------ 36.3-----
2024-04-20 07:30 am W 20.0 25.1------ 36.5-----
2024-04-20 07:20 am W 21.0 25.1------ 36.5-----
2024-04-20 07:10 am W 21.0 24.1------ 36.5-----
2024-04-20 07:00 am W 21.0 24.1------ 36.5-----
2024-04-20 06:50 am W 20.0 24.1------ 36.5-----